Stowell, TX (77661)

3:14 AM CST on December 21, 2014 (GMT -0600)
Burrell Cove | Change Station
CLOSE
Current Station
Personal Weather Station
Location: Beaumont, TX
Elevation: 16 ft
Nearby Weather Stations

Elev 16 ft 29.89 °N, 94.22 °W | Updated 46 seconds ago

Partly Cloudy
Partly Cloudy
42.8 °F
Feels Like 43 °F
N
0.0
Wind Variable Wind from NNW
Gusts 0.0 mph

Today
High -- | Low -- °F
--% Chance of Precip.
Yesterday
High -- | Low -- °F
Precip. -- in
7:08 AM 5:22 PM
Waning Crescent, 1% visible
Pressure 30.16 in
Visibility 7.0 miles
Clouds Clear
Windchill 43 °F
Dew Point 42 °F
Humidity 97%
Rainfall 0.00 in
Snow Depth Not available.
UV 0 out of 12
Pollen 6.30 out of 12
Air Quality Not available.
Flu Activity Not available.
METAR KBMT 210855Z AUTO 36003KT 7SM CLR 05/05 A3016 RMK AO2 T00520051

More Conditions Fewer Conditions

Pressure 30.16 in
Visibility 7.0 miles
Clouds Clear
Windchill 43 °F
Dew Point 42 °F
Humidity 97%
Rainfall 0.00 in
Snow Depth Not available.
UV 0 out of 12
Pollen 6.30 out of 12
Air Quality Not available.
Flu Activity Not available.
METAR KBMT 210855Z AUTO 36003KT 7SM CLR 05/05 A3016 RMK AO2 T00520051

More Conditions Fewer Conditions

10-Day Weather Forecast

Almanac

Astronomy

Dec. 21, 2014 Rise Set
Actual Time
Civil Twilight
Nautical Twilight
Astronomical Twilight
Moon
Length of Visible Light
Length of Day
Tomorrow will be .
, % of the Moon is Illuminated

Today's Extremes

State Highs State Lows

Community

WunderPhotos

Upload Photos

1,779,364 photos uploaded!

WunderBlogs® & News

Nearby

Air Quality

  Air Quality AQ Index Pollutant
Not available.

Snow Depth

Station Depth Elevation

Earthquake Activity

City Distance Mag. Time & Date
Minimum magnitude displayed is 2.5.

Coastal Water Temperatures

Place Temperature

Nearby Weather Stations